Terminal Aerodrome Forecast
Issued by NWS

Home | Current Version | Previous Version | Text Only | Print | Product List | Glossary Off
Versions: 1 2 3 4 5 6 7 8 9 10 11 12 13 14 15

000
FTUS43 KOAX 231206 RRA
TAFCDR
TAF
KCDR 231206Z 2312/2412 33010KT 4SM -SN BR SCT007 OVC025
     FM231800 34016KT P6SM OVC035
     FM232000 33022G24KT P6SM OVC050
     FM240300 26006KT P6SM SKC=

USA.gov is the U.S. government's official web portal to all federal, state and local government web resources and services.